Time;durP1;ratioP1;P1;durP2;ratioP2;P2;SDS_P1;SDS_P2;PMS_P1;PMS_P2;Temp;Humidity;BMP_temperature;BMP_pressure;BME280_temperature;BME280_humidity;BME280_pressure;Samples;Min_cycle;Max_cycle;Signal;HPM_P1;HPM_P2
2022/04/01 00:00:10;;;;;;;7.30;6.50;;;7.70;94.90;;;;;;6190405;23;20262;-87
2022/04/01 00:02:37;;;;;;;7.13;6.43;;;7.60;95.20;;;;;;6190269;23;20146;-87
2022/04/01 00:05:04;;;;;;;8.67;7.43;;;7.70;95.10;;;;;;6189827;23;20157;-86
2022/04/01 00:07:29;;;;;;;8.43;7.60;;;7.80;94.90;;;;;;6189837;23;20252;-87
2022/04/01 00:09:55;;;;;;;8.00;7.20;;;7.90;94.80;;;;;;6190369;23;20174;-87
2022/04/01 00:12:21;;;;;;;8.80;7.70;;;7.70;95.10;;;;;;6190095;23;20151;-86
2022/04/01 00:14:46;;;;;;;9.30;8.40;;;7.70;95.20;;;;;;6190264;23;20141;-87
2022/04/01 00:17:12;;;;;;;10.07;8.50;;;7.60;95.30;;;;;;6189994;23;20136;-86
2022/04/01 00:19:38;;;;;;;8.80;7.90;;;7.70;95.40;;;;;;6190117;23;20140;-86
2022/04/01 00:22:05;;;;;;;10.00;9.00;;;7.70;95.30;;;;;;6189851;23;20172;-86
2022/04/01 00:24:32;;;;;;;10.17;9.13;;;7.90;95.20;;;;;;6189805;23;20141;-86
2022/04/01 00:26:59;;;;;;;10.27;9.23;;;7.80;95.10;;;;;;6190137;23;20833;-86
2022/04/01 00:29:24;;;;;;;10.60;9.50;;;7.70;95.30;;;;;;6190117;23;20175;-86
2022/04/01 00:31:59;;;;;;;12.63;9.90;;;7.80;95.20;;;;;;6190045;23;20199;-86
2022/04/01 00:34:26;;;;;;;12.53;10.43;;;7.70;95.40;;;;;;6189885;23;20151;-86
2022/04/01 00:36:53;;;;;;;14.03;12.43;;;7.60;95.80;;;;;;6189999;23;20149;-86
2022/04/01 00:39:19;;;;;;;16.77;13.47;;;7.70;95.40;;;;;;6190236;23;20148;-86
2022/04/01 00:41:47;;;;;;;14.10;12.27;;;7.70;95.40;;;;;;6189774;23;20200;-86
2022/04/01 00:44:26;;;;;;;15.53;13.37;;;7.70;95.60;;;;;;6189978;23;20177;-86
2022/04/01 00:46:55;;;;;;;14.90;12.40;;;7.70;95.80;;;;;;6189324;23;20160;-87
2022/04/01 00:49:22;;;;;;;14.77;12.13;;;7.60;95.90;;;;;;6189917;23;20140;-86
2022/04/01 00:51:50;;;;;;;12.93;11.53;;;7.60;96.20;;;;;;6189953;23;20218;-86
2022/04/01 00:54:16;;;;;;;10.53;9.20;;;7.50;96.30;;;;;;6189674;23;20540;-87
2022/04/01 00:56:42;;;;;;;9.27;8.37;;;7.60;96.20;;;;;;6190143;23;20198;-86
2022/04/01 00:59:09;;;;;;;9.43;8.43;;;7.50;96.10;;;;;;6189778;23;20146;-87
2022/04/01 01:01:36;;;;;;;8.53;7.63;;;7.60;96.30;;;;;;6189463;23;20192;-86
2022/04/01 01:04:07;;;;;;;9.43;8.00;;;7.70;96.10;;;;;;6189635;23;20573;-86
2022/04/01 01:06:37;;;;;;;8.13;7.37;;;7.60;96.10;;;;;;6189617;23;20158;-86
2022/04/01 01:09:03;;;;;;;7.73;7.03;;;7.50;96.30;;;;;;6189605;23;20590;-86
2022/04/01 01:11:31;;;;;;;7.90;7.10;;;7.50;96.30;;;;;;6189580;23;20155;-86
2022/04/01 01:13:57;;;;;;;7.53;6.83;;;7.50;96.10;;;;;;6189634;23;20144;-86
2022/04/01 01:16:22;;;;;;;8.07;7.37;;;7.40;96.30;;;;;;6189450;23;20186;-86
2022/04/01 01:19:04;;;;;;;7.70;7.00;;;7.30;96.90;;;;;;6189395;23;20651;-86
2022/04/01 01:21:31;;;;;;;8.17;7.33;;;7.20;97.40;;;;;;6189529;23;20194;-86
2022/04/01 01:24:00;;;;;;;8.37;7.57;;;7.20;97.30;;;;;;6189568;23;20197;-86
2022/04/01 01:26:26;;;;;;;8.73;7.90;;;7.20;97.50;;;;;;6189420;23;20227;-86
2022/04/01 01:28:55;;;;;;;9.27;7.43;;;7.10;97.60;;;;;;6189791;23;20171;-86
2022/04/01 01:31:20;;;;;;;7.63;6.87;;;7.10;98.10;;;;;;6189217;23;20140;-86
2022/04/01 01:33:46;;;;;;;8.00;7.20;;;7.00;97.80;;;;;;6189831;23;20148;-87
2022/04/01 01:36:12;;;;;;;8.87;7.73;;;7.00;97.80;;;;;;6189761;23;20222;-86
2022/04/01 01:38:38;;;;;;;8.47;7.57;;;7.00;98.00;;;;;;6189189;23;20155;-86
2022/04/01 01:41:03;;;;;;;8.47;7.63;;;7.00;98.20;;;;;;6188455;23;20605;-86
2022/04/01 01:43:32;;;;;;;9.53;7.97;;;7.00;98.10;;;;;;6188451;23;20140;-85
2022/04/01 01:45:58;;;;;;;8.10;7.30;;;7.00;97.90;;;;;;6187997;23;20143;-86
2022/04/01 01:48:24;;;;;;;9.47;8.37;;;6.90;98.00;;;;;;6188095;23;20163;-86
2022/04/01 01:56:18;;;;;;;7.60;6.80;;;6.80;98.50;;;;;;6215709;23;20178;-86
2022/04/01 01:58:44;;;;;;;8.10;6.90;;;6.90;98.50;;;;;;6189325;23;20234;-86
2022/04/01 02:01:10;;;;;;;7.00;6.40;;;7.00;98.10;;;;;;6189144;23;20230;-87
2022/04/01 02:03:36;;;;;;;6.97;6.00;;;6.90;97.70;;;;;;6189418;23;20174;-87
2022/04/01 02:06:03;;;;;;;6.47;5.87;;;6.70;98.40;;;;;;6189172;23;20151;-86
2022/04/01 02:08:29;;;;;;;7.47;5.37;;;6.70;98.20;;;;;;6189551;23;20263;-89
2022/04/01 02:10:56;;;;;;;6.00;5.40;;;6.80;98.30;;;;;;6189093;23;20147;-87
2022/04/01 02:13:23;;;;;;;6.87;5.43;;;6.90;97.80;;;;;;6189020;23;20144;-86
2022/04/01 02:15:50;;;;;;;5.30;4.80;;;6.80;97.90;;;;;;6189284;23;20219;-86
2022/04/01 02:18:16;;;;;;;5.80;4.57;;;6.80;97.90;;;;;;6190047;23;20152;-87
2022/04/01 02:20:42;;;;;;;5.53;5.00;;;6.70;97.90;;;;;;6189115;23;20397;-86
2022/04/01 02:23:09;;;;;;;5.37;4.50;;;6.80;98.00;;;;;;6190859;23;20167;-87
2022/04/01 02:25:36;;;;;;;6.10;4.90;;;6.60;98.10;;;;;;6191015;23;20144;-86
2022/04/01 02:28:02;;;;;;;4.33;3.87;;;6.70;98.60;;;;;;6190986;23;20538;-85
2022/04/01 02:30:28;;;;;;;5.03;4.53;;;6.60;98.60;;;;;;6191097;23;20149;-87
2022/04/01 02:32:54;;;;;;;4.30;3.87;;;6.50;99.00;;;;;;6191344;23;20144;-87
2022/04/01 02:35:19;;;;;;;4.07;3.67;;;6.50;99.20;;;;;;6190996;23;20187;-86
2022/04/01 02:37:46;;;;;;;4.33;3.90;;;6.50;99.10;;;;;;6191181;23;20163;-87
2022/04/01 02:40:12;;;;;;;4.97;4.17;;;6.40;99.30;;;;;;6191393;23;20168;-87
2022/04/01 02:42:38;;;;;;;4.27;3.83;;;6.50;99.50;;;;;;6190624;23;20168;-87
2022/04/01 02:45:04;;;;;;;4.40;4.00;;;6.50;99.70;;;;;;6191230;23;20144;-86
2022/04/01 03:52:50;;;;;;;8.03;4.37;;;6.00;99.90;;;;;;6199549;23;20210;-83
2022/04/01 03:55:17;;;;;;;4.30;3.90;;;5.90;99.90;;;;;;6219435;23;20148;-86
2022/04/01 03:57:44;;;;;;;5.17;4.10;;;6.00;99.90;;;;;;6220033;23;20177;-84
2022/04/01 04:00:12;;;;;;;6.60;3.67;;;5.90;99.90;;;;;;6220152;23;20143;-84
2022/04/01 04:02:43;;;;;;;4.47;3.70;;;6.00;99.90;;;;;;6219647;23;20174;-84
2022/04/01 04:05:09;;;;;;;4.37;3.97;;;5.90;99.90;;;;;;6220545;23;20147;-84
2022/04/01 04:07:36;;;;;;;4.10;3.70;;;5.80;99.90;;;;;;6220182;23;20258;-84
2022/04/01 04:10:04;;;;;;;4.33;3.93;;;5.80;99.90;;;;;;6219674;23;20174;-84
2022/04/01 04:12:31;;;;;;;5.60;3.67;;;5.70;99.90;;;;;;6219784;23;20155;-84
2022/04/01 11:16:49;;;;;;;4.83;3.10;;;5.60;99.90;;;;;;6209024;23;20210;-93
2022/04/01 11:19:19;;;;;;;3.07;2.73;;;5.50;99.90;;;;;;6247604;23;20222;-91
2022/04/01 11:21:46;;;;;;;6.30;3.13;;;5.50;99.90;;;;;;6247595;23;20178;-92
2022/04/01 11:24:34;;;;;;;5.33;2.87;;;5.50;99.90;;;;;;6247217;23;20205;-91
2022/04/01 11:27:25;;;;;;;4.33;2.97;;;5.60;99.90;;;;;;6220925;23;20514;-91
2022/04/01 11:30:22;;;;;;;4.40;3.20;;;5.70;99.60;;;;;;6221103;23;20222;-92
2022/04/01 11:32:53;;;;;;;4.13;3.30;;;5.70;99.90;;;;;;6197032;23;20580;-93
2022/04/01 11:35:22;;;;;;;3.97;3.03;;;5.70;99.90;;;;;;6221102;23;20174;-94
2022/04/01 11:37:49;;;;;;;4.63;3.03;;;5.70;99.90;;;;;;6221760;23;20230;-94
2022/04/01 11:40:19;;;;;;;4.70;3.03;;;5.90;99.20;;;;;;6225432;23;20143;-93
2022/04/01 11:43:02;;;;;;;5.20;2.73;;;5.90;98.70;;;;;;6224173;23;20154;-93
2022/04/01 11:45:31;;;;;;;4.20;2.63;;;6.00;99.30;;;;;;6221077;23;20150;-93
2022/04/01 11:47:57;;;;;;;5.10;2.97;;;6.10;98.80;;;;;;6221050;23;20234;-93
2022/04/01 11:50:24;;;;;;;5.80;2.30;;;6.30;98.20;;;;;;6221037;23;20165;-93
2022/04/01 11:52:53;;;;;;;4.20;2.70;;;6.40;98.30;;;;;;6221038;23;20453;-93
2022/04/01 11:55:24;;;;;;;3.83;3.00;;;6.50;97.90;;;;;;6248071;22;20132;-93
2022/04/01 11:57:53;;;;;;;2.60;2.33;;;6.60;97.30;;;;;;6221719;23;20495;-89
2022/04/01 12:00:21;;;;;;;4.27;2.83;;;6.60;97.10;;;;;;6248888;23;20144;-94
2022/04/01 12:02:53;;;;;;;7.37;3.20;;;6.50;96.90;;;;;;6249741;23;20143;-93
2022/04/01 12:05:19;;;;;;;4.57;2.77;;;6.60;96.70;;;;;;6222184;23;20143;-90
2022/04/01 12:11:00;;;;;;;5.10;3.23;;;6.60;96.40;;;;;;6249027;23;20223;-91
2022/04/01 12:13:28;;;;;;;5.73;2.60;;;6.70;95.60;;;;;;6222280;23;20155;-92
2022/04/01 12:15:56;;;;;;;3.20;2.23;;;6.60;95.40;;;;;;6222353;23;20620;-92
2022/04/01 12:18:25;;;;;;;3.47;2.70;;;6.60;96.00;;;;;;6222216;23;20158;-92
2022/04/01 12:20:53;;;;;;;3.50;2.67;;;6.60;95.90;;;;;;6222884;23;20702;-89
2022/04/01 12:23:21;;;;;;;4.37;2.50;;;6.50;96.90;;;;;;6248574;23;20148;-94
2022/04/01 12:25:49;;;;;;;4.20;2.30;;;6.70;96.30;;;;;;6222959;23;20143;-93
2022/04/01 12:28:16;;;;;;;4.17;2.40;;;6.80;95.90;;;;;;6250237;23;20143;-93
2022/04/01 12:30:44;;;;;;;8.17;2.93;;;6.80;95.40;;;;;;6255979;23;20460;-92
2022/04/01 12:33:27;;;;;;;5.57;2.60;;;6.80;95.20;;;;;;6254548;23;20512;-94
2022/04/01 12:36:06;;;;;;;3.20;2.43;;;6.70;95.40;;;;;;6220463;23;20143;-93
2022/04/01 12:38:37;;;;;;;4.60;2.33;;;6.80;95.20;;;;;;6219847;23;20157;-93
2022/04/01 12:41:13;;;;;;;2.73;2.20;;;6.70;95.00;;;;;;6246786;23;20171;-88
2022/04/01 12:43:46;;;;;;;3.57;2.40;;;6.60;95.40;;;;;;6220043;23;20139;-93
2022/04/01 12:46:18;;;;;;;5.03;2.50;;;6.60;95.70;;;;;;6219516;23;20657;-92
2022/04/01 12:48:55;;;;;;;3.73;2.40;;;6.40;96.10;;;;;;6219850;23;20179;-93
2022/04/01 12:51:29;;;;;;;5.90;2.80;;;6.40;96.20;;;;;;6219900;23;20155;-93
2022/04/01 12:54:10;;;;;;;4.17;2.70;;;6.30;97.00;;;;;;6246590;23;20143;-93
2022/04/01 12:56:50;;;;;;;5.63;2.57;;;6.40;96.90;;;;;;6246907;22;20238;-91
2022/04/01 12:59:24;;;;;;;3.87;2.70;;;6.30;96.30;;;;;;6220209;23;20158;-88
2022/04/01 13:02:01;;;;;;;3.83;2.80;;;6.40;95.60;;;;;;6220105;23;20211;-91
2022/04/01 13:04:28;;;;;;;5.13;2.77;;;6.40;95.30;;;;;;6246880;23;20653;-90
2022/04/01 13:07:16;;;;;;;3.90;3.07;;;6.30;95.90;;;;;;6219309;23;20150;-92
2022/04/01 14:43:04;;;;;;;5.53;3.90;;;6.20;98.60;;;;;;6202020;23;20218;-93
2022/04/01 14:45:31;;;;;;;4.97;3.77;;;6.30;98.60;;;;;;6220577;23;20147;-92
2022/04/01 14:47:56;;;;;;;5.57;3.97;;;6.40;98.50;;;;;;6219530;23;20562;-90
2022/04/01 14:50:22;;;;;;;7.40;4.23;;;6.40;98.40;;;;;;6223675;23;20154;-91
2022/04/01 14:52:48;;;;;;;7.13;4.30;;;6.40;97.80;;;;;;6226265;23;20151;-91
2022/04/01 14:55:14;;;;;;;5.17;3.70;;;6.40;98.20;;;;;;6222724;22;20488;-91
2022/04/01 14:57:40;;;;;;;7.67;4.37;;;6.30;98.30;;;;;;6222074;23;20205;-92
2022/04/01 15:35:58;;;;;;;6.23;5.00;;;6.30;99.90;;;;;;6179962;23;20207;-91
2022/04/01 15:53:37;;;;;;;8.80;5.10;;;6.90;97.80;;;;;;6187142;22;20207;-94
2022/04/01 17:14:55;;;;;;;5.73;3.40;;;6.80;94.20;;;;;;6217581;23;20282;-92
2022/04/01 17:17:21;;;;;;;4.20;3.10;;;6.70;94.60;;;;;;6216234;23;20592;-93
2022/04/01 17:19:46;;;;;;;5.77;2.90;;;6.60;94.60;;;;;;6190249;23;20170;-92
2022/04/01 17:22:12;;;;;;;3.70;3.30;;;6.60;94.30;;;;;;6069545;23;20253;-93
2022/04/01 17:24:41;;;;;;;5.20;2.70;;;6.70;94.70;;;;;;6167385;23;20190;-95
2022/04/01 17:27:06;;;;;;;6.50;2.90;;;6.70;94.80;;;;;;6164407;23;20159;-90
2022/04/01 17:29:33;;;;;;;4.27;2.80;;;6.70;94.70;;;;;;6165072;23;20151;-95
2022/04/01 17:32:03;;;;;;;4.87;2.67;;;6.80;94.20;;;;;;6164837;23;20143;-96
2022/04/01 17:34:31;;;;;;;3.70;2.40;;;6.90;93.90;;;;;;6164517;23;20147;-96
2022/04/01 17:37:00;;;;;;;6.57;2.90;;;6.90;94.00;;;;;;6164998;23;20512;-93
2022/04/01 17:39:27;;;;;;;4.90;2.80;;;6.90;93.90;;;;;;6165170;23;20234;-93
2022/04/01 17:41:54;;;;;;;2.40;2.20;;;6.90;93.80;;;;;;6164393;23;20191;-95
2022/04/01 17:44:19;;;;;;;4.30;2.37;;;6.70;94.10;;;;;;6164815;23;20144;-95
2022/04/01 17:46:46;;;;;;;3.97;2.10;;;6.70;94.40;;;;;;6164552;23;20160;-95
2022/04/01 17:49:11;;;;;;;3.00;1.90;;;6.70;94.40;;;;;;6164852;23;20155;-92
2022/04/01 17:51:39;;;;;;;3.63;2.37;;;6.70;93.90;;;;;;6164090;23;20153;-95
2022/04/01 17:54:06;;;;;;;2.30;2.10;;;6.70;93.60;;;;;;6164751;23;20564;-96
2022/04/01 17:56:35;;;;;;;3.70;2.50;;;6.70;93.40;;;;;;6186009;23;20623;-96
2022/04/01 17:59:04;;;;;;;5.57;2.53;;;6.70;93.70;;;;;;6194302;23;20204;-93
2022/04/01 18:01:33;;;;;;;2.93;2.23;;;6.70;93.70;;;;;;6194645;23;20174;-95
2022/04/01 18:04:02;;;;;;;3.07;2.30;;;6.70;93.70;;;;;;6194725;23;20150;-93
2022/04/01 18:06:30;;;;;;;3.53;2.20;;;6.70;94.10;;;;;;6193862;23;20200;-92
2022/04/01 18:08:58;;;;;;;3.10;2.23;;;6.60;94.50;;;;;;6194618;23;20492;-92
2022/04/01 18:11:24;;;;;;;4.60;2.60;;;6.60;94.80;;;;;;6194343;23;20204;-96
2022/04/01 18:13:50;;;;;;;3.50;2.17;;;6.50;95.40;;;;;;6194436;23;20150;-94
2022/04/01 18:16:15;;;;;;;2.83;2.50;;;6.50;95.60;;;;;;6092969;23;20158;-95
2022/04/01 18:18:46;;;;;;;4.43;2.40;;;6.50;95.70;;;;;;6164124;23;20167;-96
2022/04/01 18:21:18;;;;;;;5.20;3.23;;;6.40;96.00;;;;;;6164311;23;20183;-96
2022/04/01 18:23:44;;;;;;;4.00;2.87;;;6.30;96.50;;;;;;6165059;23;20154;-94
2022/04/01 18:26:21;;;;;;;3.37;2.33;;;6.30;96.90;;;;;;6165139;23;20162;-93
2022/04/01 18:29:22;;;;;;;2.40;1.80;;;6.30;96.60;;;;;;6164777;23;20161;-95
2022/04/01 18:32:00;;;;;;;4.13;2.40;;;6.40;96.40;;;;;;6164092;23;20162;-96
2022/04/01 18:34:30;;;;;;;5.43;2.20;;;6.50;95.60;;;;;;6164479;23;20255;-92
2022/04/01 18:36:58;;;;;;;2.57;2.03;;;6.40;96.00;;;;;;6164169;23;20151;-95
2022/04/01 18:39:26;;;;;;;3.70;1.90;;;6.40;95.70;;;;;;6164504;23;20148;-96
2022/04/01 18:41:55;;;;;;;2.77;1.97;;;6.40;95.80;;;;;;6064476;23;20225;-95
2022/04/01 18:44:21;;;;;;;1.67;1.57;;;6.40;95.50;;;;;;6164721;23;20479;-95
2022/04/01 18:46:47;;;;;;;3.83;1.70;;;6.50;95.50;;;;;;6064842;23;20223;-95
2022/04/01 18:49:14;;;;;;;2.93;2.20;;;6.50;95.60;;;;;;6165525;23;20148;-93
2022/04/01 18:51:41;;;;;;;6.50;2.00;;;6.50;95.80;;;;;;6164894;23;20155;-95
2022/04/01 18:54:06;;;;;;;4.17;1.90;;;6.50;95.80;;;;;;6165297;23;20144;-93
2022/04/01 18:56:32;;;;;;;3.43;2.17;;;6.50;96.00;;;;;;6189335;23;20200;-96
2022/04/01 18:58:57;;;;;;;3.13;2.10;;;6.50;96.60;;;;;;6190506;23;20141;-96
2022/04/01 19:01:35;;;;;;;2.30;2.10;;;6.40;97.10;;;;;;6190236;23;20233;-94
2022/04/01 19:04:07;;;;;;;3.67;2.20;;;6.30;97.80;;;;;;6166122;23;20151;-95
2022/04/01 19:06:45;;;;;;;3.33;2.40;;;6.40;97.90;;;;;;6191735;23;20238;-95
2022/04/01 19:09:16;;;;;;;4.13;2.50;;;6.30;98.50;;;;;;6193681;23;20143;-95
2022/04/01 19:11:54;;;;;;;3.33;2.40;;;6.20;99.00;;;;;;6191997;23;20262;-96
2022/04/01 19:14:26;;;;;;;3.30;2.70;;;6.20;99.40;;;;;;6219279;23;20240;-94
2022/04/01 19:16:53;;;;;;;3.17;2.40;;;6.00;99.90;;;;;;6191475;23;20163;-96
2022/04/01 19:19:30;;;;;;;4.50;2.50;;;6.10;99.90;;;;;;6167509;23;20214;-96
2022/04/01 19:22:07;;;;;;;3.73;2.43;;;6.00;99.90;;;;;;6193221;23;20184;-94
2022/04/01 19:24:36;;;;;;;3.40;2.67;;;6.00;99.90;;;;;;6194184;23;20242;-96
2022/04/01 19:27:04;;;;;;;3.27;2.73;;;6.00;99.90;;;;;;6168907;23;20148;-94
2022/04/01 19:29:30;;;;;;;3.50;2.30;;;6.00;99.90;;;;;;6196999;23;20140;-96
2022/04/01 19:31:57;;;;;;;5.37;2.70;;;6.10;99.90;;;;;;6196031;23;20156;-94
2022/04/01 19:34:28;;;;;;;3.63;2.73;;;6.20;99.90;;;;;;6168226;23;20147;-94
2022/04/01 19:36:56;;;;;;;5.93;3.03;;;6.20;99.90;;;;;;6190350;23;20148;-94
2022/04/01 19:39:25;;;;;;;4.00;2.77;;;6.20;99.70;;;;;;6165763;23;20607;-95
2022/04/01 19:41:52;;;;;;;3.10;2.50;;;6.10;99.90;;;;;;6179047;23;20187;-95
2022/04/01 19:44:17;;;;;;;4.63;2.77;;;6.20;99.90;;;;;;6191930;23;20159;-94
2022/04/01 19:46:43;;;;;;;3.33;2.80;;;6.20;99.40;;;;;;6190701;23;20156;-96
2022/04/01 19:52:31;;;;;;;4.20;2.80;;;6.20;99.70;;;;;;6217231;23;20155;-93
2022/04/01 19:54:57;;;;;;;3.70;2.80;;;6.20;99.50;;;;;;6190716;23;20737;-95
2022/04/01 19:57:23;;;;;;;5.13;2.97;;;6.20;99.10;;;;;;6190244;23;20227;-93
2022/04/01 19:59:48;;;;;;;4.83;2.77;;;6.20;99.20;;;;;;6190706;23;20151;-96
2022/04/01 20:02:14;;;;;;;5.57;2.60;;;6.10;99.10;;;;;;6191082;23;20233;-95
2022/04/01 20:04:39;;;;;;;4.00;2.90;;;6.20;98.40;;;;;;6190675;23;20202;-93
2022/04/01 20:07:05;;;;;;;6.37;2.80;;;6.30;98.30;;;;;;6190412;23;20171;-94
2022/04/01 20:09:31;;;;;;;5.77;2.93;;;6.20;98.20;;;;;;6216895;23;20144;-95
2022/04/01 20:11:57;;;;;;;6.23;2.93;;;6.20;98.10;;;;;;6181523;23;20259;-95
2022/04/01 20:14:22;;;;;;;6.47;2.80;;;6.30;97.70;;;;;;6190672;23;20218;-91
2022/04/01 20:16:48;;;;;;;3.77;2.50;;;6.30;97.40;;;;;;6189503;23;20144;-95
2022/04/01 20:19:13;;;;;;;4.10;2.70;;;6.10;97.60;;;;;;6190463;23;20143;-95
2022/04/01 20:21:39;;;;;;;3.57;2.23;;;6.20;96.60;;;;;;6179022;23;20183;-94
2022/04/01 20:24:05;;;;;;;6.50;2.83;;;6.20;95.40;;;;;;6190587;23;20227;-94
2022/04/01 20:26:31;;;;;;;7.23;2.43;;;6.10;95.80;;;;;;6190185;23;20175;-95
2022/04/01 20:28:58;;;;;;;6.63;2.53;;;6.10;95.30;;;;;;6190202;23;20148;-91
2022/04/01 20:31:24;;;;;;;2.57;1.90;;;6.00;94.30;;;;;;6190145;23;20147;-94
2022/04/01 20:33:51;;;;;;;3.83;2.13;;;6.10;93.50;;;;;;6190434;23;20144;-95
2022/04/01 20:36:17;;;;;;;3.13;2.17;;;6.10;92.90;;;;;;6164902;23;20486;-93
2022/04/01 20:38:44;;;;;;;5.50;2.20;;;6.00;92.90;;;;;;6163651;23;20229;-96
2022/04/01 20:41:10;;;;;;;6.67;2.20;;;6.00;92.60;;;;;;6165098;23;20266;-93
2022/04/01 20:43:35;;;;;;;5.17;2.03;;;6.00;92.60;;;;;;6165469;23;20606;-92
2022/04/01 20:46:04;;;;;;;4.43;2.03;;;6.00;92.60;;;;;;6064744;23;20450;-95
2022/04/01 20:48:30;;;;;;;5.33;1.70;;;6.10;91.60;;;;;;6165241;23;20205;-94
2022/04/01 20:50:56;;;;;;;4.53;1.80;;;6.10;91.70;;;;;;6164715;23;20234;-95
2022/04/01 20:53:23;;;;;;;3.87;2.17;;;6.20;90.90;;;;;;6165760;23;20147;-93
2022/04/01 20:55:49;;;;;;;2.63;1.60;;;6.20;90.00;;;;;;6171944;23;20218;-95
2022/04/01 20:58:15;;;;;;;3.23;1.90;;;6.10;90.10;;;;;;6171917;23;20152;-94
2022/04/01 21:00:41;;;;;;;2.50;1.67;;;6.10;89.60;;;;;;6167912;23;20569;-94
2022/04/01 21:03:07;;;;;;;4.60;1.90;;;6.20;89.40;;;;;;6166735;23;20151;-95
2022/04/01 21:05:32;;;;;;;2.07;1.47;;;6.10;88.70;;;;;;6165077;23;20148;-93
2022/04/01 21:07:58;;;;;;;3.40;1.90;;;6.20;88.60;;;;;;6165890;23;20214;-95
2022/04/01 21:10:24;;;;;;;4.00;1.97;;;6.20;88.50;;;;;;6169258;23;20175;-95
2022/04/01 21:12:49;;;;;;;4.87;2.20;;;6.20;88.80;;;;;;6190535;23;20148;-95
2022/04/01 21:15:16;;;;;;;3.33;1.57;;;6.10;88.30;;;;;;6190779;23;20222;-95
2022/04/01 21:17:42;;;;;;;4.70;1.70;;;6.20;88.50;;;;;;6190124;23;20144;-96
2022/04/01 22:56:19;;;;;;;4.83;2.23;;;5.70;89.60;;;;;;6174614;23;20348;-86
2022/04/01 22:58:44;;;;;;;2.80;2.10;;;5.90;88.60;;;;;;6184821;23;20153;-86
2022/04/01 23:01:10;;;;;;;7.23;2.20;;;5.80;89.30;;;;;;6183915;23;20183;-85
2022/04/01 23:03:35;;;;;;;5.80;2.30;;;5.80;90.20;;;;;;6185858;23;20145;-85
2022/04/01 23:06:01;;;;;;;8.20;2.43;;;5.80;89.80;;;;;;6186177;23;20145;-85
2022/04/01 23:08:27;;;;;;;5.63;2.13;;;5.70;89.90;;;;;;6186132;23;20140;-86
2022/04/01 23:10:53;;;;;;;4.30;2.03;;;5.80;90.00;;;;;;6186332;23;20195;-88
2022/04/01 23:13:18;;;;;;;3.27;1.93;;;5.70;89.30;;;;;;6185212;23;20176;-86
2022/04/01 23:15:44;;;;;;;4.77;2.10;;;5.80;89.40;;;;;;6185912;23;20147;-85
2022/04/01 23:18:13;;;;;;;3.77;2.13;;;5.90;89.60;;;;;;6186000;23;20222;-85
2022/04/01 23:20:39;;;;;;;4.47;2.20;;;5.90;89.50;;;;;;6187055;23;20133;-85
2022/04/01 23:23:05;;;;;;;5.57;2.20;;;5.80;89.70;;;;;;6185028;23;20144;-85
2022/04/01 23:25:31;;;;;;;5.90;2.20;;;5.70;90.10;;;;;;6185243;23;20159;-86
2022/04/01 23:27:57;;;;;;;4.53;2.00;;;5.80;89.90;;;;;;6185709;23;20232;-85
2022/04/01 23:30:23;;;;;;;2.90;1.90;;;5.80;89.70;;;;;;6185129;23;20151;-86
2022/04/01 23:32:48;;;;;;;5.30;2.17;;;5.80;89.00;;;;;;6185522;23;20141;-86
2022/04/01 23:35:15;;;;;;;4.97;2.20;;;5.80;88.40;;;;;;6185533;23;20187;-86
2022/04/01 23:37:41;;;;;;;2.53;1.80;;;5.70;89.00;;;;;;6184972;23;20283;-86
2022/04/01 23:40:07;;;;;;;3.93;2.00;;;5.70;89.00;;;;;;6186053;23;20148;-86
2022/04/01 23:42:33;;;;;;;5.50;2.20;;;5.70;89.00;;;;;;6160837;23;20190;-86
2022/04/01 23:44:59;;;;;;;3.60;2.40;;;5.70;89.00;;;;;;6185152;23;20204;-86
2022/04/01 23:47:25;;;;;;;7.10;2.03;;;5.70;89.00;;;;;;6185342;23;20483;-86
2022/04/01 23:49:51;;;;;;;6.63;2.67;;;5.80;88.50;;;;;;6185138;23;20145;-85
2022/04/01 23:52:16;;;;;;;3.77;2.10;;;5.80;88.20;;;;;;6185952;23;20167;-85
2022/04/01 23:54:42;;;;;;;4.93;2.00;;;5.80;88.30;;;;;;6185090;23;20169;-86
2022/04/01 23:57:08;;;;;;;3.67;2.00;;;5.80;88.20;;;;;;6185543;23;20157;-86
2022/04/01 23:59:34;;;;;;;3.07;2.30;;;5.70;88.50;;;;;;6160128;23;20147;-85
